Main page
METAR-TAF:

METAR-TAF

Airports :

Morón Air Base

Morón de la Frontera, Spain

latitude: 37-09N, longitude: 005-37W, elevation: 87 m

Current weather observation

The report was made 24 minutes ago, at 09:00 UTC
Wind 3 kt from variable directions
Temperature 18°C
Humidity 64%
Pressure 1015 hPa
Visibility 10 km or more
no clouds below 1500 m and no cumulonimbus

METAR: LEMO 210900Z VRB03KT CAVOK 18/11 Q1015 NOSIG

Time: 11:24 (09:24 UTC)

Forecast

The report was made 1 hour and 24 minutes ago, at 08:00 UTC
Forecast valid from 21 at 09 UTC to 22 at 09 UTC
Wind 2 kt from variable directions
Visibility 10 km or more
no clouds below 1500 m and no cumulonimbus
Becoming
from 21 at 17 UTC to 21 at 19 UTC
Wind 10 kt from the West/Southwest
Becoming
from 21 at 23 UTC to 22 at 01 UTC
Wind 3 kt from variable directions

TAF: LEMO 210800Z 2109/2209 VRB02KT CAVOK TX23/2115Z TN12/2205Z BECMG 2117/2119 24010KT BECMG 2123/2201 VRB03KT

Weather observations and forecasts of more than 4000 airports (METAR and TAF reports).

The available stations are represented by yellow and red dots on the map.

Hover mouse over dot to see the name of the station.

Then click to see weather observations and forecasts.

To change the map : click on the green buttons with a black cross to zoom in, on the green button with a dash to zoom out, or on the green arrows for adjacent maps.


METAR-TAF: